Klein, Texas
Current Conditions -  °F | °C
As of 3:53 PM on Thursday 18 Dec 2014 (Local Time) from KDWH Reporting Station
Overcast Overcast  
Wind Chill: 70°   Ceiling: 2100
Heat Index: 70°   Visibility: 10mi
Dew Point: 60°   Wind: 6mph
Humidity: 71%   Direction: 10°N
Pressure: 30.03"   Gusts: NA
Location:  30.1189°N, 95.5166°W
Report Text: KDWH 182153Z 01005KT 10SM OVC021 21/16 A3003 RMK AO2 SLP168 T02110156
Loading
Personal Weather Stations






























Interactive Weather Map New forecast layout! Learn more

10-Day Weather Forecast

Advertisements
Track Severe Weather on mobile